Time;durP1;ratioP1;P1;durP2;ratioP2;P2;SDS_P1;SDS_P2;PMS_P1;PMS_P2;Temp;Humidity;BMP_temperature;BMP_pressure;BME280_temperature;BME280_humidity;BME280_pressure;Samples;Min_cycle;Max_cycle;Signal;HPM_P1;HPM_P2
2021/12/29 00:02:00;;;;;;;6.17;2.83;;;9.90;99.90;;;;;;5070213;28;20895;-48
2021/12/29 00:04:27;;;;;;;6.53;2.33;;;10.00;99.90;;;;;;5067499;28;20536;-48
2021/12/29 00:06:56;;;;;;;9.70;2.43;;;9.90;99.90;;;;;;5065365;28;20828;-48
2021/12/29 00:09:23;;;;;;;7.43;2.10;;;10.00;99.90;;;;;;5065889;28;20733;-48
2021/12/29 00:11:50;;;;;;;12.17;3.00;;;9.90;99.90;;;;;;5065579;27;20568;-48
2021/12/29 00:14:18;;;;;;;11.47;2.97;;;9.90;99.90;;;;;;5069644;27;20489;-48
2021/12/29 00:16:45;;;;;;;7.50;2.00;;;10.00;99.90;;;;;;5087305;27;20602;-48
2021/12/29 00:19:12;;;;;;;14.20;2.97;;;10.00;99.90;;;;;;5069544;28;20475;-47
2021/12/29 00:21:38;;;;;;;6.93;2.53;;;10.00;99.90;;;;;;5058981;27;20475;-47
2021/12/29 00:24:06;;;;;;;4.47;2.17;;;10.00;99.90;;;;;;5096469;27;20884;-47
2021/12/29 00:26:34;;;;;;;13.67;2.53;;;10.00;99.90;;;;;;5062837;28;20505;-48
2021/12/29 00:29:02;;;;;;;12.10;2.60;;;10.00;99.90;;;;;;5065535;27;20476;-47
2021/12/29 00:31:31;;;;;;;6.53;1.70;;;9.90;99.90;;;;;;5064718;28;20562;-48
2021/12/29 00:33:59;;;;;;;6.67;1.70;;;10.00;99.90;;;;;;5057447;28;20576;-48
2021/12/29 00:36:26;;;;;;;9.70;2.80;;;9.90;99.90;;;;;;5077212;28;20550;-48
2021/12/29 00:38:53;;;;;;;7.43;2.37;;;9.90;99.90;;;;;;5073975;28;20497;-48
2021/12/29 00:41:21;;;;;;;8.40;1.60;;;9.90;99.90;;;;;;5079907;28;20493;-48
2021/12/29 00:43:48;;;;;;;6.40;2.20;;;9.90;99.90;;;;;;5074622;28;20509;-48
2021/12/29 00:46:17;;;;;;;5.50;2.07;;;9.90;99.90;;;;;;5062074;28;20902;-48
2021/12/29 00:48:47;;;;;;;9.63;1.93;;;9.90;99.90;;;;;;5087512;28;20903;-48
2021/12/29 00:51:15;;;;;;;10.80;2.40;;;9.90;99.90;;;;;;5077768;28;20508;-47
2021/12/29 00:53:42;;;;;;;10.17;2.83;;;9.90;99.90;;;;;;5075386;28;20545;-48
2021/12/29 00:56:09;;;;;;;8.83;2.53;;;9.90;99.90;;;;;;5079712;28;20985;-48
2021/12/29 00:58:36;;;;;;;7.20;2.27;;;9.90;99.90;;;;;;5079829;28;20532;-47
2021/12/29 01:01:04;;;;;;;6.53;2.17;;;9.90;99.90;;;;;;5083211;28;20878;-47
2021/12/29 01:03:33;;;;;;;5.97;2.53;;;9.90;99.90;;;;;;5081531;28;20493;-48
2021/12/29 01:06:01;;;;;;;7.87;1.90;;;9.90;99.90;;;;;;5078183;28;21356;-48
2021/12/29 01:08:28;;;;;;;5.90;2.00;;;9.90;99.90;;;;;;5088504;28;20543;-47
2021/12/29 01:10:55;;;;;;;4.23;1.57;;;9.90;99.90;;;;;;5079589;28;20481;-48
2021/12/29 01:13:29;;;;;;;9.30;3.20;;;9.90;99.90;;;;;;5082913;28;21126;-48
2021/12/29 01:16:09;;;;;;;5.83;1.37;;;9.90;99.90;;;;;;5071635;28;20501;-48
2021/12/29 01:18:36;;;;;;;10.00;1.93;;;9.80;99.90;;;;;;5080187;28;21024;-48
2021/12/29 01:21:06;;;;;;;3.70;1.70;;;9.80;99.90;;;;;;5082901;28;20472;-48
2021/12/29 01:23:33;;;;;;;16.03;2.90;;;9.80;99.90;;;;;;5077676;28;20544;-48
2021/12/29 01:25:59;;;;;;;9.73;2.57;;;9.80;99.90;;;;;;5088007;28;20712;-48
2021/12/29 01:28:26;;;;;;;11.50;3.70;;;9.90;99.90;;;;;;5073895;28;20975;-48
2021/12/29 01:30:53;;;;;;;9.73;2.67;;;9.90;99.90;;;;;;5088394;28;20529;-50
2021/12/29 01:33:20;;;;;;;11.50;3.17;;;9.90;99.90;;;;;;5089230;28;20480;-48
2021/12/29 01:35:46;;;;;;;8.03;2.33;;;9.90;99.90;;;;;;5081456;28;20545;-47
2021/12/29 01:38:15;;;;;;;6.20;2.20;;;9.90;99.90;;;;;;5083023;28;20481;-48
2021/12/29 01:40:48;;;;;;;6.53;1.83;;;10.00;99.90;;;;;;5078471;28;20534;-47
2021/12/29 01:43:15;;;;;;;14.07;1.77;;;9.90;99.90;;;;;;5070195;28;20607;-48
2021/12/29 01:45:41;;;;;;;4.87;1.70;;;9.90;99.90;;;;;;5090331;27;20744;-47
2021/12/29 01:48:08;;;;;;;3.03;1.47;;;9.90;99.90;;;;;;5095095;27;20529;-48
2021/12/29 01:50:37;;;;;;;8.17;2.93;;;9.90;99.90;;;;;;5075761;28;20918;-47
2021/12/29 01:53:09;;;;;;;4.83;1.17;;;9.90;99.90;;;;;;5091196;28;20471;-48
2021/12/29 01:55:39;;;;;;;4.60;1.87;;;9.90;99.90;;;;;;5070853;28;21000;-47
2021/12/29 01:58:07;;;;;;;1.73;1.10;;;9.80;99.90;;;;;;5104925;27;20946;-49
2021/12/29 02:00:36;;;;;;;7.83;2.20;;;9.80;99.90;;;;;;5073688;28;20509;-48
2021/12/29 02:03:02;;;;;;;3.63;1.00;;;9.70;99.90;;;;;;5103541;27;20481;-48
2021/12/29 02:05:29;;;;;;;4.10;1.30;;;9.60;99.90;;;;;;5074808;28;20541;-47
2021/12/29 02:07:56;;;;;;;3.40;1.30;;;9.60;99.90;;;;;;5075677;28;20556;-47
2021/12/29 02:10:24;;;;;;;3.07;1.40;;;9.60;99.90;;;;;;5082241;28;21045;-48
2021/12/29 02:12:52;;;;;;;2.90;1.50;;;9.60;99.90;;;;;;5078346;28;20534;-47
2021/12/29 02:15:19;;;;;;;4.13;1.30;;;9.60;99.90;;;;;;5073640;28;20501;-47
2021/12/29 02:17:49;;;;;;;4.63;1.30;;;9.50;99.90;;;;;;5078631;28;20702;-53
2021/12/29 02:20:19;;;;;;;3.43;1.40;;;9.50;99.90;;;;;;5081370;28;20473;-47
2021/12/29 02:22:48;;;;;;;4.47;1.27;;;9.50;99.90;;;;;;5057051;28;20488;-47
2021/12/29 02:25:32;;;;;;;3.70;1.50;;;9.50;99.90;;;;;;5086723;28;20484;-47
2021/12/29 02:28:02;;;;;;;2.67;1.10;;;9.50;99.90;;;;;;5071322;28;20934;-47
2021/12/29 02:30:29;;;;;;;3.20;1.30;;;9.50;99.90;;;;;;5081360;28;20481;-47
2021/12/29 02:33:00;;;;;;;1.87;0.83;;;9.50;99.90;;;;;;5079605;28;20533;-48
2021/12/29 02:35:29;;;;;;;2.40;0.83;;;9.50;99.90;;;;;;5077424;28;20481;-48
2021/12/29 02:37:56;;;;;;;2.70;1.27;;;9.50;99.90;;;;;;5079072;28;20986;-48
2021/12/29 02:40:23;;;;;;;5.73;1.30;;;9.50;99.90;;;;;;5077804;28;20487;-50
2021/12/29 02:42:49;;;;;;;2.40;0.93;;;9.50;99.90;;;;;;5075637;28;20675;-47
2021/12/29 02:45:22;;;;;;;5.83;1.63;;;9.50;99.90;;;;;;5084052;28;20492;-48
2021/12/29 02:47:49;;;;;;;2.47;0.90;;;9.50;99.90;;;;;;5076449;28;21015;-48
2021/12/29 02:50:18;;;;;;;8.60;1.50;;;9.50;99.90;;;;;;5082538;28;20480;-48
2021/12/29 02:52:47;;;;;;;2.00;1.07;;;9.50;99.90;;;;;;5079672;28;20477;-47
2021/12/29 02:55:15;;;;;;;7.20;2.27;;;9.50;99.90;;;;;;5080492;28;20531;-47
2021/12/29 02:57:42;;;;;;;1.77;1.33;;;9.60;99.90;;;;;;5079582;28;20557;-47
2021/12/29 03:00:14;;;;;;;2.00;1.10;;;9.60;99.90;;;;;;5074326;28;20996;-47
2021/12/29 03:02:41;;;;;;;4.17;1.10;;;9.60;99.90;;;;;;5078781;28;20526;-47
2021/12/29 03:05:09;;;;;;;2.20;1.50;;;9.60;99.90;;;;;;5078741;28;20485;-48
2021/12/29 03:07:35;;;;;;;2.67;0.80;;;9.70;99.90;;;;;;5073694;28;20537;-47
2021/12/29 03:10:04;;;;;;;4.13;1.17;;;9.70;99.90;;;;;;5072382;28;20491;-47
2021/12/29 03:12:31;;;;;;;2.40;1.20;;;9.70;99.90;;;;;;5099984;27;20482;-48
2021/12/29 03:14:58;;;;;;;7.83;1.53;;;9.70;99.90;;;;;;5078565;28;20550;-47
2021/12/29 03:17:25;;;;;;;3.23;1.17;;;9.80;99.90;;;;;;5074231;28;20482;-47
2021/12/29 03:19:53;;;;;;;6.73;2.30;;;9.80;99.90;;;;;;5074701;28;20748;-47
2021/12/29 03:22:20;;;;;;;2.67;1.63;;;9.80;99.90;;;;;;5077308;28;20900;-48
2021/12/29 03:24:47;;;;;;;3.03;1.70;;;9.70;99.90;;;;;;5072112;28;20495;-47
2021/12/29 03:27:15;;;;;;;2.67;1.50;;;9.70;99.90;;;;;;5078077;28;20964;-47
2021/12/29 03:29:42;;;;;;;2.47;0.93;;;9.70;99.90;;;;;;5080995;28;20485;-47
2021/12/29 03:32:19;;;;;;;6.00;1.50;;;9.70;99.90;;;;;;5072873;28;20492;-47
2021/12/29 03:34:46;;;;;;;2.80;0.83;;;9.70;99.90;;;;;;5101823;27;20576;-47
2021/12/29 03:37:13;;;;;;;4.80;1.63;;;9.70;99.90;;;;;;5076045;28;20539;-48
2021/12/29 03:39:40;;;;;;;2.07;0.93;;;9.70;99.90;;;;;;5073353;28;20538;-48
2021/12/29 03:42:07;;;;;;;2.20;1.00;;;9.70;99.90;;;;;;5075107;28;21024;-47
2021/12/29 03:44:35;;;;;;;3.90;1.20;;;9.80;99.90;;;;;;5078678;28;20563;-48
2021/12/29 03:47:03;;;;;;;9.50;1.00;;;9.80;99.90;;;;;;5076779;28;20942;-48
2021/12/29 03:49:29;;;;;;;1.57;0.90;;;9.80;99.90;;;;;;5078754;28;20897;-48
2021/12/29 03:51:56;;;;;;;4.73;0.90;;;9.80;99.90;;;;;;5077600;28;20527;-48
2021/12/29 03:54:23;;;;;;;3.13;0.87;;;9.70;99.90;;;;;;5078846;28;20494;-48
2021/12/29 03:56:50;;;;;;;1.80;0.90;;;9.80;99.90;;;;;;5073433;28;21097;-48
2021/12/29 03:59:16;;;;;;;1.60;0.80;;;9.80;99.90;;;;;;5079479;28;20537;-48
2021/12/29 04:01:46;;;;;;;2.13;1.00;;;9.80;99.90;;;;;;5068157;28;20501;-48
2021/12/29 04:04:13;;;;;;;1.77;1.07;;;9.80;99.90;;;;;;5081436;28;20529;-48
2021/12/29 04:06:40;;;;;;;2.47;1.00;;;9.80;99.90;;;;;;5071235;28;20479;-48
2021/12/29 04:09:09;;;;;;;3.47;0.70;;;9.80;99.90;;;;;;5081381;28;20476;-47
2021/12/29 04:11:36;;;;;;;1.57;0.83;;;9.70;99.90;;;;;;5074371;28;20933;-47
2021/12/29 04:14:03;;;;;;;1.40;0.80;;;9.80;99.90;;;;;;5070811;28;20527;-47
2021/12/29 04:16:30;;;;;;;2.10;1.10;;;9.80;99.90;;;;;;5069307;28;20484;-48
2021/12/29 04:19:14;;;;;;;2.00;0.87;;;9.80;99.90;;;;;;5074061;28;20525;-48
2021/12/29 04:21:42;;;;;;;1.40;0.73;;;9.80;99.90;;;;;;5078852;28;20568;-47
2021/12/29 04:24:09;;;;;;;2.47;0.73;;;9.80;99.90;;;;;;5076337;28;20529;-48
2021/12/29 04:26:38;;;;;;;1.70;0.80;;;9.80;99.90;;;;;;5080086;28;20476;-48
2021/12/29 04:29:05;;;;;;;3.70;0.83;;;9.80;99.90;;;;;;5069484;28;21085;-48
2021/12/29 04:31:32;;;;;;;1.50;0.60;;;9.80;99.90;;;;;;5095197;28;20566;-48
2021/12/29 04:34:01;;;;;;;3.03;1.00;;;9.80;99.90;;;;;;5082204;28;20591;-47
2021/12/29 04:36:27;;;;;;;2.07;1.10;;;9.90;99.90;;;;;;5075838;28;20922;-48
2021/12/29 04:38:57;;;;;;;2.00;0.87;;;9.80;99.90;;;;;;5074085;28;20545;-48
2021/12/29 04:41:24;;;;;;;2.17;0.80;;;9.90;99.90;;;;;;5064258;28;20499;-56
2021/12/29 04:43:51;;;;;;;2.70;0.80;;;9.90;99.90;;;;;;5079675;28;20484;-47
2021/12/29 04:46:19;;;;;;;2.67;0.70;;;9.90;99.90;;;;;;5079219;28;20762;-47
2021/12/29 04:48:51;;;;;;;2.37;1.10;;;9.90;99.90;;;;;;5076741;28;21200;-48
2021/12/29 04:51:24;;;;;;;2.53;0.90;;;9.90;99.90;;;;;;5075672;28;20567;-47
2021/12/29 04:53:51;;;;;;;3.50;1.00;;;9.90;99.90;;;;;;5078692;28;20492;-48
2021/12/29 04:56:18;;;;;;;2.90;0.93;;;9.90;99.90;;;;;;5072151;28;20484;-48
2021/12/29 04:58:45;;;;;;;7.87;1.37;;;9.90;99.90;;;;;;5079901;28;20493;-48
2021/12/29 05:01:11;;;;;;;2.97;0.90;;;9.90;99.90;;;;;;5077600;28;20469;-48
2021/12/29 05:03:40;;;;;;;3.80;1.17;;;9.90;99.90;;;;;;5077474;28;20858;-48
2021/12/29 05:08:53;;;;;;;6.33;1.27;;;9.90;99.90;;;;;;5077650;28;20836;-47
2021/12/29 05:11:20;;;;;;;1.80;1.50;;;9.90;99.90;;;;;;5077366;28;20519;-48
2021/12/29 05:13:48;;;;;;;2.40;1.33;;;9.90;99.90;;;;;;5079435;28;20483;-52
2021/12/29 05:16:15;;;;;;;3.90;1.77;;;9.90;99.90;;;;;;5074365;28;20512;-47
2021/12/29 05:18:44;;;;;;;4.27;1.50;;;9.90;99.90;;;;;;5087498;28;21208;-48
2021/12/29 05:21:11;;;;;;;2.77;1.67;;;10.00;99.90;;;;;;5087990;28;20547;-48
2021/12/29 05:23:37;;;;;;;4.53;2.13;;;10.00;99.90;;;;;;5070430;28;20538;-48
2021/12/29 05:26:05;;;;;;;5.20;1.50;;;10.00;99.90;;;;;;5085702;28;20510;-47
2021/12/29 05:28:32;;;;;;;8.00;3.40;;;10.00;99.90;;;;;;5077704;28;20546;-48
2021/12/29 05:30:59;;;;;;;6.03;1.40;;;10.00;99.90;;;;;;5076284;28;21095;-48
2021/12/29 05:33:26;;;;;;;5.07;1.87;;;9.90;99.90;;;;;;5061277;28;21105;-48
2021/12/29 05:35:53;;;;;;;2.93;1.60;;;9.90;99.90;;;;;;5101091;28;20584;-47
2021/12/29 05:38:20;;;;;;;6.93;1.90;;;9.90;99.90;;;;;;5076462;28;20519;-47
2021/12/29 05:40:48;;;;;;;11.43;1.97;;;9.90;99.90;;;;;;5080040;28;20502;-48
2021/12/29 05:43:16;;;;;;;6.70;1.70;;;9.90;99.90;;;;;;5083274;28;20866;-47
2021/12/29 05:45:43;;;;;;;8.90;1.90;;;9.90;99.90;;;;;;5081874;28;20860;-48
2021/12/29 05:48:10;;;;;;;7.63;1.43;;;9.90;99.90;;;;;;5077980;28;20506;-48
2021/12/29 05:50:37;;;;;;;8.20;2.00;;;9.90;99.90;;;;;;5074427;28;21014;-46
2021/12/29 05:53:05;;;;;;;6.67;2.23;;;9.90;99.90;;;;;;5081493;28;20555;-48
2021/12/29 05:55:32;;;;;;;12.87;2.40;;;9.90;99.90;;;;;;5078507;28;20509;-48
2021/12/29 05:57:59;;;;;;;7.53;2.57;;;9.90;99.90;;;;;;5085971;28;21830;-49
2021/12/29 06:00:28;;;;;;;22.23;3.40;;;9.90;99.90;;;;;;5078128;28;20947;-47
2021/12/29 06:02:56;;;;;;;9.03;4.20;;;9.90;99.90;;;;;;5075689;28;20530;-47
2021/12/29 06:05:24;;;;;;;20.50;3.80;;;9.90;99.90;;;;;;5081539;27;20579;-48
2021/12/29 06:07:50;;;;;;;9.40;2.57;;;9.80;99.90;;;;;;5079092;28;20487;-48
2021/12/29 06:10:17;;;;;;;17.80;3.03;;;9.90;99.90;;;;;;5073560;28;20488;-48
2021/12/29 06:12:44;;;;;;;6.10;2.87;;;9.80;99.90;;;;;;5082992;28;20482;-47
2021/12/29 06:15:11;;;;;;;12.97;2.73;;;9.90;99.90;;;;;;5082520;28;20538;-47
2021/12/29 06:17:40;;;;;;;8.13;2.60;;;9.90;99.90;;;;;;5078766;28;20493;-48
2021/12/29 06:20:09;;;;;;;10.67;3.20;;;9.90;99.90;;;;;;5071921;28;20999;-48
2021/12/29 06:22:36;;;;;;;5.23;2.53;;;9.90;99.90;;;;;;5079805;28;20495;-49
2021/12/29 06:25:06;;;;;;;13.43;2.50;;;9.90;99.90;;;;;;5081653;28;20468;-47
2021/12/29 06:27:32;;;;;;;13.53;2.60;;;9.90;99.90;;;;;;5079720;28;20530;-48
2021/12/29 06:29:59;;;;;;;10.80;2.97;;;9.80;99.90;;;;;;5076101;28;20501;-48
2021/12/29 06:32:26;;;;;;;10.83;2.67;;;9.80;99.90;;;;;;5079181;28;21111;-48
2021/12/29 06:34:55;;;;;;;7.23;2.93;;;9.80;99.90;;;;;;5075452;28;20479;-48
2021/12/29 06:37:22;;;;;;;8.73;3.27;;;9.90;99.90;;;;;;5078497;28;20565;-47
2021/12/29 06:39:49;;;;;;;8.63;1.93;;;9.90;99.90;;;;;;5077812;28;20966;-48
2021/12/29 06:42:16;;;;;;;5.50;1.90;;;9.90;99.90;;;;;;5106829;27;20912;-48
2021/12/29 06:44:45;;;;;;;9.00;2.40;;;10.00;99.90;;;;;;5082868;28;20973;-48
2021/12/29 06:47:12;;;;;;;7.10;2.27;;;10.00;99.90;;;;;;5079187;28;20509;-47
2021/12/29 06:49:39;;;;;;;15.00;3.10;;;10.00;99.90;;;;;;5076810;28;20570;-55
2021/12/29 06:52:08;;;;;;;4.30;1.83;;;9.90;99.90;;;;;;5073060;28;20800;-48
2021/12/29 06:54:35;;;;;;;5.00;1.40;;;9.90;99.90;;;;;;5078856;28;20492;-48
2021/12/29 06:57:03;;;;;;;11.33;1.87;;;9.90;99.90;;;;;;5066651;28;20484;-48
2021/12/29 06:59:29;;;;;;;7.80;2.43;;;9.90;99.90;;;;;;5091743;28;20613;-48
2021/12/29 07:01:56;;;;;;;5.07;1.90;;;9.80;99.90;;;;;;5070856;28;20484;-48
2021/12/29 07:04:23;;;;;;;3.40;1.50;;;9.80;99.90;;;;;;5072732;28;20515;-48
2021/12/29 07:06:50;;;;;;;4.10;1.90;;;9.80;99.90;;;;;;5070542;28;20866;-47
2021/12/29 07:09:19;;;;;;;8.30;1.73;;;9.80;99.90;;;;;;5063473;28;20493;-47
2021/12/29 07:11:46;;;;;;;3.77;1.70;;;9.80;99.90;;;;;;5074629;28;20487;-48
2021/12/29 07:14:13;;;;;;;5.83;1.70;;;9.80;99.90;;;;;;5071950;28;20488;-48
2021/12/29 07:16:43;;;;;;;2.60;1.63;;;9.80;99.90;;;;;;5072132;28;20488;-46
2021/12/29 07:19:10;;;;;;;3.87;1.20;;;9.80;99.90;;;;;;5068730;28;20491;-47
2021/12/29 07:21:37;;;;;;;2.73;1.10;;;9.80;99.90;;;;;;5076419;28;20546;-49
2021/12/29 07:24:05;;;;;;;2.53;1.63;;;9.80;99.90;;;;;;5069246;28;20504;-48
2021/12/29 07:26:33;;;;;;;7.60;2.03;;;9.90;99.90;;;;;;5062709;28;20475;-48
2021/12/29 07:29:00;;;;;;;2.60;1.37;;;9.90;99.90;;;;;;5074997;28;20490;-48
2021/12/29 07:31:28;;;;;;;2.67;1.47;;;10.00;99.90;;;;;;5078462;28;20538;-48
2021/12/29 07:33:55;;;;;;;3.63;1.20;;;10.00;99.90;;;;;;5081017;28;20479;-47
2021/12/29 07:36:21;;;;;;;2.30;1.47;;;10.00;99.90;;;;;;5071657;28;20488;-48
2021/12/29 07:38:48;;;;;;;5.33;1.40;;;10.00;99.90;;;;;;5078550;28;21102;-48
2021/12/29 07:41:15;;;;;;;3.83;1.70;;;10.10;99.90;;;;;;5074851;28;20487;-48
2021/12/29 07:43:44;;;;;;;2.20;1.20;;;10.10;99.90;;;;;;5069786;28;20545;-47
2021/12/29 07:46:13;;;;;;;3.37;1.90;;;10.10;99.90;;;;;;5066005;28;20576;-48
2021/12/29 07:48:39;;;;;;;8.17;2.63;;;10.20;99.90;;;;;;5078703;28;21016;-48
2021/12/29 07:51:07;;;;;;;8.00;2.60;;;10.20;99.90;;;;;;5074904;28;20890;-47
2021/12/29 07:53:37;;;;;;;4.90;2.40;;;10.20;99.90;;;;;;5073398;28;20487;-48
2021/12/29 07:56:05;;;;;;;4.10;2.00;;;10.30;99.90;;;;;;5072777;28;20825;-48
2021/12/29 07:58:32;;;;;;;6.80;2.77;;;10.30;99.90;;;;;;5050047;28;20576;-48
2021/12/29 08:01:01;;;;;;;7.77;2.70;;;10.20;99.90;;;;;;5046745;28;20521;-48
2021/12/29 08:03:27;;;;;;;9.17;3.00;;;10.20;99.90;;;;;;5045944;28;20904;-48
2021/12/29 08:05:55;;;;;;;11.70;2.90;;;10.10;99.90;;;;;;5033732;28;20903;-47
2021/12/29 08:08:22;;;;;;;14.13;3.63;;;10.10;99.90;;;;;;5045635;28;20553;-48
2021/12/29 08:10:49;;;;;;;17.33;4.70;;;10.10;99.90;;;;;;5045888;27;20488;-48
2021/12/29 08:13:16;;;;;;;11.87;2.93;;;10.00;99.90;;;;;;5063326;28;21591;-48
2021/12/29 08:15:42;;;;;;;10.90;3.17;;;10.00;99.90;;;;;;5042950;28;20558;-49
2021/12/29 08:18:10;;;;;;;15.70;4.00;;;10.00;99.90;;;;;;5043981;28;20615;-48
2021/12/29 08:20:37;;;;;;;13.07;4.73;;;10.10;99.90;;;;;;5045320;28;20795;-48
2021/12/29 08:23:05;;;;;;;13.03;3.60;;;10.10;99.90;;;;;;5044866;28;20489;-48
2021/12/29 08:25:32;;;;;;;19.33;3.70;;;10.10;99.90;;;;;;5047175;28;20519;-48
2021/12/29 08:27:59;;;;;;;25.83;4.80;;;10.10;99.90;;;;;;5045926;28;20487;-47
2021/12/29 08:30:27;;;;;;;16.87;6.97;;;10.10;99.90;;;;;;5041592;28;20592;-48
2021/12/29 08:32:53;;;;;;;17.50;6.83;;;10.10;99.90;;;;;;5040167;28;21063;-48
2021/12/29 08:35:22;;;;;;;25.47;7.97;;;10.10;99.90;;;;;;5045785;28;20543;-48
2021/12/29 08:37:49;;;;;;;11.63;5.97;;;10.10;99.90;;;;;;5046926;28;20485;-48
2021/12/29 08:40:17;;;;;;;14.97;5.90;;;10.10;99.90;;;;;;5048015;28;20551;-48
2021/12/29 08:42:46;;;;;;;16.90;5.80;;;10.20;99.90;;;;;;5047945;28;20494;-48
2021/12/29 08:45:15;;;;;;;15.30;5.80;;;10.20;99.90;;;;;;5046805;28;20563;-48
2021/12/29 08:47:43;;;;;;;11.90;5.60;;;10.20;99.90;;;;;;5044164;28;20550;-47
2021/12/29 08:50:14;;;;;;;12.70;5.07;;;10.10;99.90;;;;;;5045557;28;20541;-47
2021/12/29 08:52:43;;;;;;;15.23;5.70;;;10.10;99.90;;;;;;5050252;28;20506;-48
2021/12/29 08:55:12;;;;;;;11.43;6.27;;;10.10;99.90;;;;;;5045569;28;20482;-48
2021/12/29 08:57:38;;;;;;;10.53;4.40;;;10.10;99.90;;;;;;5037923;28;20948;-48
2021/12/29 09:00:07;;;;;;;9.40;6.27;;;10.20;99.90;;;;;;5060511;28;20755;-48
2021/12/29 09:02:34;;;;;;;8.03;5.07;;;10.20;99.90;;;;;;5043162;28;20479;-48
2021/12/29 09:05:00;;;;;;;11.20;6.03;;;10.20;99.90;;;;;;5043704;28;20481;-48
2021/12/29 09:07:27;;;;;;;12.00;6.03;;;10.10;99.90;;;;;;5046895;28;21047;-47
2021/12/29 09:09:55;;;;;;;12.87;6.60;;;10.10;99.90;;;;;;5045390;28;20538;-48
2021/12/29 09:12:22;;;;;;;5.13;3.60;;;10.10;99.90;;;;;;5044627;28;20539;-48
2021/12/29 09:14:49;;;;;;;11.60;6.07;;;10.10;99.90;;;;;;5034585;28;20481;-48
2021/12/29 09:17:16;;;;;;;16.33;6.13;;;10.10;99.90;;;;;;5037765;28;20509;-48
2021/12/29 09:19:44;;;;;;;14.83;6.50;;;10.10;99.90;;;;;;5034397;28;20500;-47
2021/12/29 09:22:13;;;;;;;12.70;7.77;;;10.10;99.90;;;;;;5040651;28;20497;-47
2021/12/29 09:24:40;;;;;;;19.23;5.53;;;10.10;99.90;;;;;;5038775;28;20547;-48
2021/12/29 09:27:08;;;;;;;9.33;6.37;;;10.10;99.90;;;;;;5036905;28;20477;-47
2021/12/29 09:29:35;;;;;;;9.10;4.97;;;10.10;99.90;;;;;;5047201;28;20485;-52
2021/12/29 09:32:04;;;;;;;5.23;3.60;;;10.10;99.90;;;;;;5040692;28;20481;-47
2021/12/29 09:34:32;;;;;;;8.93;5.00;;;10.10;99.90;;;;;;5049395;28;22338;-47
2021/12/29 09:36:59;;;;;;;11.80;5.30;;;10.10;99.90;;;;;;5060934;28;20489;-48
2021/12/29 09:39:26;;;;;;;9.07;6.10;;;10.10;99.90;;;;;;5040142;28;20537;-47
2021/12/29 09:41:53;;;;;;;10.93;5.07;;;10.10;99.90;;;;;;5053412;28;20472;-48
2021/12/29 09:44:21;;;;;;;12.63;5.13;;;10.20;99.90;;;;;;5043542;28;20579;-48
2021/12/29 09:46:49;;;;;;;12.13;5.70;;;10.20;99.90;;;;;;5037286;28;20492;-48
2021/12/29 09:49:16;;;;;;;12.93;6.17;;;10.20;99.90;;;;;;5045997;28;20500;-49
2021/12/29 09:51:43;;;;;;;12.30;6.10;;;10.20;99.90;;;;;;5047813;28;20485;-48
2021/12/29 09:54:10;;;;;;;14.00;5.67;;;10.20;99.90;;;;;;5042403;28;21720;-47
2021/12/29 09:56:36;;;;;;;9.40;5.53;;;10.20;99.90;;;;;;5041089;28;20568;-48
2021/12/29 09:59:04;;;;;;;13.37;5.10;;;10.20;99.90;;;;;;5041307;28;20927;-48
2021/12/29 10:01:32;;;;;;;12.67;4.60;;;10.20;99.90;;;;;;5067785;28;20531;-48
2021/12/29 10:03:59;;;;;;;12.93;5.50;;;10.20;99.90;;;;;;5047146;28;20484;-47
2021/12/29 10:06:26;;;;;;;12.50;5.00;;;10.20;99.90;;;;;;5035797;28;20484;-48
2021/12/29 10:08:53;;;;;;;15.20;4.80;;;10.20;99.90;;;;;;5043330;28;20606;-48
2021/12/29 10:11:26;;;;;;;8.83;3.67;;;10.10;99.90;;;;;;5042558;28;20970;-48
2021/12/29 10:13:54;;;;;;;19.83;4.40;;;10.00;99.90;;;;;;5018919;28;21109;-48
2021/12/29 10:16:24;;;;;;;11.23;3.90;;;10.00;99.90;;;;;;5055915;28;20489;-47
2021/12/29 10:18:59;;;;;;;25.43;7.77;;;10.00;99.90;;;;;;5042359;28;20573;-48
2021/12/29 10:21:26;;;;;;;18.27;6.00;;;10.00;99.90;;;;;;5049380;28;20550;-48
2021/12/29 10:23:55;;;;;;;18.47;5.20;;;10.00;99.90;;;;;;5049827;28;20669;-48
2021/12/29 10:26:24;;;;;;;30.43;5.93;;;10.10;99.90;;;;;;5067092;27;20577;-48
2021/12/29 10:28:53;;;;;;;15.57;6.13;;;10.00;99.90;;;;;;5037113;28;20489;-48
2021/12/29 10:31:22;;;;;;;24.93;7.20;;;10.00;99.90;;;;;;5054565;28;20485;-48
2021/12/29 10:33:51;;;;;;;8.93;3.80;;;9.90;99.90;;;;;;5050585;28;21305;-48
2021/12/29 10:36:23;;;;;;;14.60;3.13;;;10.00;99.90;;;;;;5039579;28;20866;-48
2021/12/29 10:38:56;;;;;;;20.10;4.90;;;10.00;99.90;;;;;;5039811;28;20939;-48
2021/12/29 10:41:23;;;;;;;11.93;3.93;;;10.00;99.90;;;;;;5040548;28;20484;-48
2021/12/29 10:43:59;;;;;;;8.67;2.53;;;10.00;99.90;;;;;;5041782;28;20486;-48
2021/12/29 10:46:31;;;;;;;9.00;2.73;;;10.00;99.90;;;;;;5044130;28;20899;-48
2021/12/29 10:48:59;;;;;;;16.13;4.77;;;10.00;99.90;;;;;;5048319;28;20484;-48
2021/12/29 10:51:33;;;;;;;17.77;3.90;;;10.00;99.90;;;;;;5037126;28;20494;-48
2021/12/29 10:54:09;;;;;;;18.90;4.20;;;10.10;99.90;;;;;;5038218;28;21093;-48
2021/12/29 10:56:38;;;;;;;19.10;4.60;;;10.10;99.90;;;;;;5054098;28;21279;-47
2021/12/29 10:59:22;;;;;;;12.00;4.00;;;10.10;99.90;;;;;;5045199;28;20477;-47
2021/12/29 11:01:50;;;;;;;3.97;1.83;;;10.10;99.90;;;;;;5043140;28;20490;-47
2021/12/29 11:04:19;;;;;;;6.23;2.10;;;10.20;99.90;;;;;;5047573;28;20842;-48
2021/12/29 11:06:49;;;;;;;13.13;3.43;;;10.20;99.90;;;;;;5043927;28;21049;-48
2021/12/29 11:09:24;;;;;;;7.40;3.03;;;10.20;99.90;;;;;;5035057;28;20482;-48
2021/12/29 11:11:51;;;;;;;8.83;2.77;;;10.20;99.90;;;;;;5037985;28;20481;-47
2021/12/29 11:14:21;;;;;;;5.90;1.63;;;10.30;99.90;;;;;;5046791;28;20548;-47
2021/12/29 11:16:59;;;;;;;5.40;1.77;;;10.30;99.90;;;;;;5044946;28;20637;-47
2021/12/29 11:19:26;;;;;;;5.00;2.10;;;10.30;99.90;;;;;;5050349;28;20890;-47
2021/12/29 11:22:06;;;;;;;9.97;2.27;;;10.30;99.90;;;;;;5047661;28;20553;-47
2021/12/29 11:24:33;;;;;;;2.07;1.20;;;10.30;99.90;;;;;;5044309;28;20477;-50
2021/12/29 11:27:00;;;;;;;12.00;2.40;;;10.30;99.90;;;;;;5048743;28;20663;-48
2021/12/29 11:29:26;;;;;;;5.57;1.77;;;10.30;99.90;;;;;;5022687;28;21104;-47
2021/12/29 11:32:00;;;;;;;6.90;2.10;;;10.40;99.90;;;;;;5047511;28;20587;-47
2021/12/29 11:34:28;;;;;;;4.80;1.73;;;10.30;99.90;;;;;;5041973;28;20513;-47
2021/12/29 11:37:06;;;;;;;7.73;2.67;;;10.30;99.90;;;;;;5042287;28;20549;-48
2021/12/29 11:39:36;;;;;;;7.70;2.87;;;10.30;99.90;;;;;;5032732;28;20490;-48
2021/12/29 11:42:03;;;;;;;22.47;2.50;;;10.30;99.90;;;;;;5058918;28;20484;-47
2021/12/29 11:44:30;;;;;;;5.23;1.70;;;10.30;99.90;;;;;;5037561;28;21008;-47
2021/12/29 11:46:57;;;;;;;6.30;2.00;;;10.30;99.90;;;;;;5041836;28;20490;-48
2021/12/29 11:49:24;;;;;;;6.33;1.57;;;10.30;99.90;;;;;;5029987;28;20478;-48
2021/12/29 11:51:57;;;;;;;6.67;2.30;;;10.30;99.90;;;;;;5039145;28;20493;-47
2021/12/29 11:54:47;;;;;;;6.07;2.17;;;10.30;99.90;;;;;;5063817;28;20478;-47
2021/12/29 11:57:18;;;;;;;9.63;2.33;;;10.40;99.90;;;;;;5073600;27;20471;-48
2021/12/29 11:59:45;;;;;;;4.30;1.93;;;10.40;99.90;;;;;;5059925;27;20861;-48
2021/12/29 12:02:12;;;;;;;3.90;1.60;;;10.30;99.90;;;;;;5065836;28;20508;-48
2021/12/29 12:04:38;;;;;;;12.27;2.43;;;10.40;99.90;;;;;;5057856;28;20481;-47
2021/12/29 12:07:08;;;;;;;7.07;1.67;;;10.40;99.90;;;;;;5061791;28;20831;-48
2021/12/29 12:09:47;;;;;;;4.27;1.57;;;10.40;99.90;;;;;;5055171;27;20491;-49
2021/12/29 12:12:15;;;;;;;1.40;0.80;;;10.50;99.90;;;;;;5064547;27;20638;-48
2021/12/29 12:14:48;;;;;;;3.93;1.60;;;10.40;99.90;;;;;;5052439;28;20485;-47
2021/12/29 12:17:16;;;;;;;4.43;2.00;;;10.50;99.90;;;;;;5052251;28;20657;-47
2021/12/29 12:19:45;;;;;;;7.60;1.43;;;10.30;99.90;;;;;;5063205;27;21055;-48
2021/12/29 12:22:14;;;;;;;2.83;1.27;;;10.40;99.90;;;;;;5055392;27;21023;-48
2021/12/29 12:24:43;;;;;;;3.30;1.40;;;10.40;99.90;;;;;;5074345;27;20482;-48
2021/12/29 12:27:16;;;;;;;5.43;1.70;;;10.40;99.90;;;;;;5049010;28;20491;-52
2021/12/29 12:29:45;;;;;;;3.70;1.60;;;10.40;99.90;;;;;;5066791;27;20835;-50
2021/12/29 12:32:15;;;;;;;2.83;1.47;;;10.40;99.90;;;;;;5060953;28;21701;-47
2021/12/29 12:34:51;;;;;;;2.53;0.90;;;10.50;99.90;;;;;;5053031;28;20490;-47
2021/12/29 12:37:21;;;;;;;3.83;1.40;;;10.50;99.90;;;;;;5026651;28;20486;-48
2021/12/29 12:39:59;;;;;;;3.73;1.40;;;10.50;99.90;;;;;;5045465;28;20559;-49
2021/12/29 12:42:29;;;;;;;3.33;1.37;;;10.50;99.90;;;;;;5037442;28;20921;-48
2021/12/29 12:44:57;;;;;;;5.00;1.73;;;10.50;99.90;;;;;;5036033;28;20479;-48
2021/12/29 12:47:30;;;;;;;5.37;1.13;;;10.50;99.90;;;;;;5043795;28;20477;-48
2021/12/29 12:49:57;;;;;;;2.67;1.27;;;10.60;99.90;;;;;;5037943;28;20980;-48
2021/12/29 12:52:26;;;;;;;3.13;1.07;;;10.60;99.90;;;;;;5037092;28;20604;-48
2021/12/29 12:54:56;;;;;;;3.30;1.00;;;10.60;99.90;;;;;;5059049;28;20536;-48
2021/12/29 12:57:34;;;;;;;3.53;1.20;;;10.60;99.90;;;;;;5036796;28;20973;-48
2021/12/29 13:00:14;;;;;;;2.53;1.30;;;10.60;99.90;;;;;;5052374;28;21130;-48